createdAt,value
2022-08-11T00:01:38.095Z,1.10
2022-08-11T00:04:42.361Z,1.10
2022-08-11T00:07:56.259Z,1.33
2022-08-11T00:11:02.405Z,1.02
2022-08-11T00:14:15.180Z,1.00
2022-08-11T00:17:18.631Z,1.00
2022-08-11T00:20:23.113Z,1.10
2022-08-11T00:23:27.835Z,0.90
2022-08-11T00:26:31.829Z,1.02
2022-08-11T00:29:35.562Z,1.33
2022-08-11T00:32:58.932Z,1.00
2022-08-11T00:36:04.939Z,1.10
2022-08-11T00:39:10.384Z,1.10
2022-08-11T00:42:22.765Z,0.85
2022-08-11T00:45:35.938Z,1.20
2022-08-11T00:48:45.146Z,0.90
2022-08-11T00:52:17.467Z,1.20
2022-08-11T00:55:54.570Z,1.00
2022-08-11T00:59:35.295Z,1.00
2022-08-11T01:03:03.029Z,1.00
2022-08-11T01:06:15.114Z,0.88
2022-08-11T01:09:36.754Z,1.10
2022-08-11T01:12:44.095Z,1.08
2022-08-11T01:15:55.888Z,1.10
2022-08-11T01:20:46.117Z,0.88
2022-08-11T01:23:21.294Z,0.85
2022-08-11T01:26:42.603Z,0.87
2022-08-11T01:29:55.047Z,0.93
2022-08-11T01:33:32.263Z,0.98
2022-08-11T01:36:56.927Z,0.90
2022-08-11T01:40:30.686Z,0.93
2022-08-11T01:44:14.353Z,0.93
2022-08-11T01:47:53.263Z,0.90
2022-08-11T01:51:25.045Z,0.90
2022-08-11T01:54:33.599Z,0.90
2022-08-11T01:57:53.294Z,0.98
2022-08-11T02:01:07.630Z,1.03
2022-08-11T02:04:31.342Z,0.75
2022-08-11T02:07:55.541Z,0.82
2022-08-11T02:11:31.142Z,1.00
2022-08-11T02:15:04.507Z,0.60
2022-08-11T02:18:23.834Z,0.90
2022-08-11T02:22:24.000Z,0.80
2022-08-11T02:25:59.645Z,0.85
2022-08-11T02:29:24.784Z,0.75
2022-08-11T02:32:55.589Z,0.90
2022-08-11T02:36:31.736Z,0.80
2022-08-11T02:39:54.032Z,1.00
2022-08-11T02:43:22.085Z,0.65
2022-08-11T02:46:37.350Z,0.82
2022-08-11T02:50:02.620Z,0.75
2022-08-11T02:53:22.788Z,0.70
2022-08-11T02:56:39.200Z,0.73
2022-08-11T02:59:56.817Z,0.60
2022-08-11T03:03:48.480Z,0.70
2022-08-11T03:07:28.508Z,0.70
2022-08-11T03:10:36.121Z,0.70
2022-08-11T03:14:17.284Z,0.80
2022-08-11T03:17:36.985Z,0.80
2022-08-11T03:21:06.796Z,0.70
2022-08-11T03:24:21.609Z,0.70
2022-08-11T03:27:33.953Z,0.80
2022-08-11T03:30:44.668Z,0.80
2022-08-11T03:34:07.175Z,0.80
2022-08-11T03:37:50.933Z,0.60
2022-08-11T03:42:02.942Z,0.60
2022-08-11T03:45:40.998Z,0.70
2022-08-11T03:48:50.180Z,0.60
2022-08-11T03:52:07.616Z,0.60
2022-08-11T03:55:21.944Z,0.75
2022-08-11T03:58:55.871Z,0.80
2022-08-11T04:02:05.933Z,0.80
2022-08-11T04:05:33.498Z,1.25
2022-08-11T04:09:05.810Z,0.75
2022-08-11T04:12:47.988Z,0.98
2022-08-11T04:16:11.870Z,0.77
2022-08-11T04:19:49.763Z,0.70
2022-08-11T04:23:03.295Z,0.90
2022-08-11T04:26:34.349Z,0.77
2022-08-11T04:30:05.580Z,0.70
2022-08-11T04:33:24.620Z,0.70
2022-08-11T04:37:14.293Z,0.77
2022-08-11T04:40:59.056Z,0.73
2022-08-11T04:44:49.444Z,0.90
2022-08-11T04:48:43.699Z,1.05
2022-08-11T04:52:05.483Z,0.82
2022-08-11T04:55:48.764Z,0.90
2022-08-11T04:59:39.115Z,0.90
2022-08-11T05:03:22.193Z,0.90
2022-08-11T05:06:37.277Z,0.75
2022-08-11T05:10:07.959Z,0.75
2022-08-11T05:13:40.411Z,0.70
2022-08-11T05:17:13.009Z,1.63
2022-08-11T05:20:34.740Z,0.70
2022-08-11T05:24:02.848Z,0.77
2022-08-11T05:27:28.561Z,1.00
2022-08-11T05:30:52.273Z,1.20
2022-08-11T05:34:21.000Z,0.80
2022-08-11T05:37:29.882Z,0.90
2022-08-11T05:40:53.333Z,1.00
2022-08-11T05:44:23.298Z,0.98
2022-08-11T05:47:46.074Z,0.73
2022-08-11T05:51:30.570Z,0.80
2022-08-11T05:54:54.318Z,1.02
2022-08-11T05:58:00.493Z,0.70
2022-08-11T06:01:04.812Z,0.88
2022-08-11T06:04:15.821Z,0.80
2022-08-11T06:07:26.623Z,1.20
2022-08-11T06:10:36.005Z,1.20
2022-08-11T06:13:45.685Z,1.38
2022-08-11T06:16:50.836Z,0.90
2022-08-11T06:20:07.079Z,1.10
2022-08-11T06:23:15.022Z,1.13
2022-08-11T06:26:20.473Z,1.10
2022-08-11T06:29:37.489Z,0.90
2022-08-11T06:32:55.468Z,1.00
2022-08-11T06:36:14.769Z,0.90
2022-08-11T06:39:17.864Z,1.08
2022-08-11T06:42:42.850Z,1.20
2022-08-11T06:45:57.296Z,1.13
2022-08-11T06:49:06.321Z,0.90
2022-08-11T06:52:35.100Z,1.10
2022-08-11T06:56:02.006Z,1.20
2022-08-11T06:59:24.767Z,0.98
2022-08-11T07:02:38.220Z,1.02
2022-08-11T07:06:14.212Z,0.95
2022-08-11T07:10:15.127Z,0.90
2022-08-11T07:13:45.283Z,2.15
2022-08-11T07:16:51.714Z,1.02
2022-08-11T07:20:20.898Z,1.25
2022-08-11T07:23:47.332Z,1.10
2022-08-11T07:27:13.347Z,1.17
2022-08-11T07:30:19.403Z,0.90
2022-08-11T07:34:07.161Z,0.90
2022-08-11T07:37:17.836Z,0.82
2022-08-11T07:40:25.828Z,1.00
2022-08-11T07:43:29.297Z,1.20
2022-08-11T07:46:52.554Z,1.10
2022-08-11T07:50:19.687Z,1.02
2022-08-11T07:53:23.067Z,0.80
2022-08-11T07:56:38.621Z,1.08
2022-08-11T08:00:09.183Z,0.80
2022-08-11T08:03:34.964Z,0.80
2022-08-11T08:06:58.503Z,1.05
2022-08-11T08:10:20.852Z,0.80
2022-08-11T08:13:42.689Z,0.90
2022-08-11T08:17:05.138Z,0.60
2022-08-11T08:20:20.019Z,0.60
2022-08-11T08:23:33.990Z,1.10
2022-08-11T08:26:56.940Z,0.90
2022-08-11T08:30:20.210Z,0.70
2022-08-11T08:33:31.977Z,0.67
2022-08-11T08:36:35.505Z,0.60
2022-08-11T08:39:39.253Z,0.80
2022-08-11T08:42:54.972Z,1.10
2022-08-11T08:45:58.817Z,0.80
2022-08-11T08:49:04.558Z,0.60
2022-08-11T08:52:26.477Z,0.77
2022-08-11T08:55:33.774Z,0.98
2022-08-11T08:58:39.301Z,0.65
2022-08-11T09:02:12.946Z,0.75
2022-08-11T09:05:19.289Z,0.70
2022-08-11T09:08:24.201Z,0.60
2022-08-11T09:11:46.062Z,0.63
2022-08-11T09:15:06.392Z,0.60
2022-08-11T09:18:13.246Z,0.70
2022-08-11T09:21:44.616Z,0.47
2022-08-11T09:25:01.013Z,0.60
2022-08-11T09:28:05.241Z,0.60
2022-08-11T09:31:10.884Z,0.70
2022-08-11T09:34:15.428Z,0.50
2022-08-11T09:37:55.864Z,0.50
2022-08-11T09:41:02.979Z,0.70
2022-08-11T09:44:26.064Z,0.68
2022-08-11T09:47:30.738Z,0.65
2022-08-11T09:50:38.241Z,0.50
2022-08-11T09:54:03.025Z,0.60
2022-08-11T09:57:26.035Z,0.50
2022-08-11T10:00:40.552Z,0.73
2022-08-11T10:03:44.180Z,0.88
2022-08-11T10:07:06.865Z,0.70
2022-08-11T10:10:10.961Z,0.97
2022-08-11T10:14:30.650Z,1.02
2022-08-11T10:16:51.088Z,0.85
2022-08-11T10:20:04.821Z,0.88
2022-08-11T10:23:30.977Z,0.80
2022-08-11T10:26:53.596Z,1.00
2022-08-11T10:30:16.361Z,1.02
2022-08-11T10:33:41.739Z,1.10
2022-08-11T10:36:58.447Z,1.10
2022-08-11T10:40:04.016Z,1.15
2022-08-11T10:43:13.702Z,1.20
2022-08-11T10:46:36.225Z,1.45
2022-08-11T10:49:39.924Z,1.98
2022-08-11T10:53:03.374Z,2.05
2022-08-11T10:56:25.809Z,1.40
2022-08-11T10:59:30.461Z,1.20
2022-08-11T11:02:34.898Z,1.52
2022-08-11T11:05:38.942Z,1.15
2022-08-11T11:09:32.376Z,1.00
2022-08-11T11:12:57.679Z,1.23
2022-08-11T11:16:19.525Z,1.10
2022-08-11T11:19:25.215Z,1.15
2022-08-11T11:22:40.285Z,1.02
2022-08-11T11:26:06.307Z,0.82
2022-08-11T11:29:27.974Z,0.80
2022-08-11T11:32:40.666Z,1.10
2022-08-11T11:36:00.292Z,1.00
2022-08-11T11:39:03.967Z,1.10
2022-08-11T11:42:10.261Z,1.13
2022-08-11T11:45:24.063Z,1.20
2022-08-11T11:48:28.890Z,1.20
2022-08-11T11:51:32.907Z,1.10
2022-08-11T11:54:37.016Z,0.90
2022-08-11T11:58:02.512Z,1.10
2022-08-11T12:01:16.174Z,1.20
2022-08-11T12:04:21.371Z,1.00
2022-08-11T12:07:43.833Z,1.00
2022-08-11T12:10:49.068Z,0.90
2022-08-11T12:13:55.680Z,0.90
2022-08-11T12:17:00.273Z,0.90
2022-08-11T12:20:05.096Z,1.00
2022-08-11T12:23:47.278Z,1.00
2022-08-11T12:27:15.786Z,0.95
2022-08-11T12:30:21.213Z,0.70
2022-08-11T12:33:24.537Z,1.00
2022-08-11T12:36:28.123Z,0.70
2022-08-11T12:40:15.886Z,0.90
2022-08-11T12:43:57.038Z,1.27
2022-08-11T12:47:02.220Z,0.90
2022-08-11T12:50:24.728Z,0.80
2022-08-11T12:53:33.782Z,0.80
2022-08-11T12:57:04.758Z,0.85
2022-08-11T13:00:27.884Z,0.80
2022-08-11T13:03:56.709Z,0.93
2022-08-11T13:07:03.181Z,1.25
2022-08-11T13:10:11.208Z,0.80
2022-08-11T13:13:52.946Z,1.00
2022-08-11T13:17:03.916Z,0.75
2022-08-11T13:20:10.668Z,0.70
2022-08-11T13:23:15.417Z,0.80
2022-08-11T13:26:23.217Z,0.77
2022-08-11T13:29:46.751Z,0.80
2022-08-11T13:32:53.876Z,1.13
2022-08-11T13:35:57.603Z,0.70
2022-08-11T13:39:02.471Z,0.80
2022-08-11T13:42:06.428Z,0.73
2022-08-11T13:45:14.105Z,0.70
2022-08-11T13:48:17.901Z,0.60
2022-08-11T13:51:34.850Z,0.52
2022-08-11T13:54:39.846Z,0.93
2022-08-11T13:58:09.173Z,0.70
2022-08-11T14:01:16.763Z,1.30
2022-08-11T14:04:40.450Z,0.88
2022-08-11T14:08:37.430Z,0.75
2022-08-11T14:12:21.618Z,0.50
2022-08-11T14:15:25.202Z,0.60
2022-08-11T14:18:32.144Z,0.70
2022-08-11T14:21:58.260Z,0.65
2022-08-11T14:25:01.910Z,0.50
2022-08-11T14:28:32.101Z,0.68
2022-08-11T14:31:32.103Z,0.70
2022-08-11T14:34:40.460Z,0.65
2022-08-11T14:37:44.114Z,0.65
2022-08-11T14:41:07.177Z,0.50
2022-08-11T14:44:30.772Z,0.70
2022-08-11T14:47:36.463Z,0.70
2022-08-11T14:50:40.357Z,0.60
2022-08-11T14:53:58.425Z,0.68
2022-08-11T14:57:03.281Z,0.60
2022-08-11T15:00:09.760Z,0.85
2022-08-11T15:03:16.089Z,1.13
2022-08-11T15:06:19.856Z,0.80
2022-08-11T15:09:23.083Z,0.60
2022-08-11T15:12:31.258Z,0.70
2022-08-11T15:15:55.835Z,0.68
2022-08-11T15:19:00.199Z,1.07
2022-08-11T15:22:27.422Z,0.68
2022-08-11T15:25:34.584Z,0.70
2022-08-11T15:29:04.285Z,0.52
2022-08-11T15:32:22.813Z,0.70
2022-08-11T15:35:46.335Z,0.80
2022-08-11T15:38:56.292Z,0.65
2022-08-11T15:42:33.592Z,0.60
2022-08-11T15:45:49.981Z,0.70
2022-08-11T15:49:21.966Z,0.80
2022-08-11T15:52:37.909Z,0.60
2022-08-11T15:55:43.484Z,1.00
2022-08-11T15:59:10.843Z,0.80
2022-08-11T16:02:50.187Z,0.68
2022-08-11T16:05:53.746Z,0.70
2022-08-11T16:08:59.571Z,0.70
2022-08-11T16:12:08.053Z,0.80
2022-08-11T16:15:30.239Z,0.88
2022-08-11T16:18:43.002Z,0.80
2022-08-11T16:21:50.516Z,1.10
2022-08-11T16:27:03.580Z,1.00
2022-08-11T16:28:20.673Z,1.23
2022-08-11T16:31:25.844Z,0.90
2022-08-11T16:34:48.475Z,1.00
2022-08-11T16:38:12.088Z,1.08
2022-08-11T16:41:41.980Z,0.90
2022-08-11T16:45:03.986Z,1.02
2022-08-11T16:48:33.510Z,1.38
2022-08-11T16:51:33.339Z,1.00
2022-08-11T16:54:36.889Z,1.05
2022-08-11T16:58:01.131Z,1.30
2022-08-11T17:01:04.512Z,1.63
2022-08-11T17:04:47.645Z,1.10
2022-08-11T17:08:11.696Z,1.70
2022-08-11T17:11:34.513Z,1.35
2022-08-11T17:14:50.904Z,1.30
2022-08-11T17:17:55.569Z,1.60
2022-08-11T17:20:59.580Z,1.65
2022-08-11T17:24:09.464Z,1.38
2022-08-11T17:27:19.017Z,1.60
2022-08-11T17:30:43.730Z,1.03
2022-08-11T17:34:19.784Z,1.40
2022-08-11T17:37:24.916Z,0.98
2022-08-11T17:40:38.655Z,1.00
2022-08-11T17:44:00.991Z,1.23
2022-08-11T17:47:24.632Z,0.93
2022-08-11T17:50:30.330Z,1.30
2022-08-11T17:54:10.144Z,1.30
2022-08-11T17:57:47.615Z,1.20
2022-08-11T18:00:54.346Z,1.20
2022-08-11T18:03:58.854Z,0.90
2022-08-11T18:07:02.309Z,1.27
2022-08-11T18:10:25.404Z,1.08
2022-08-11T18:13:50.073Z,1.15
2022-08-11T18:17:11.968Z,1.63
2022-08-11T18:20:36.435Z,1.40
2022-08-11T18:23:58.368Z,1.25
2022-08-11T18:27:22.793Z,1.13
2022-08-11T18:30:48.298Z,1.40
2022-08-11T18:34:12.895Z,1.10
2022-08-11T18:37:44.370Z,1.10
2022-08-11T18:41:08.210Z,1.08
2022-08-11T18:44:34.699Z,0.95
2022-08-11T18:47:58.193Z,1.52
2022-08-11T18:51:31.151Z,1.27
2022-08-11T18:55:03.371Z,1.50
2022-08-11T18:58:30.138Z,1.30
2022-08-11T19:01:56.620Z,1.00
2022-08-11T19:06:31.771Z,1.45
2022-08-11T19:09:14.344Z,1.00
2022-08-11T19:12:37.056Z,1.30
2022-08-11T19:15:59.957Z,1.30
2022-08-11T19:19:22.562Z,0.82
2022-08-11T19:22:46.216Z,1.50
2022-08-11T19:26:08.669Z,1.30
2022-08-11T19:30:12.489Z,1.30
2022-08-11T19:33:14.429Z,1.30
2022-08-11T19:36:37.174Z,1.30
2022-08-11T19:40:00.768Z,1.20
2022-08-11T19:43:26.403Z,1.13
2022-08-11T19:46:50.927Z,1.03
2022-08-11T19:50:17.600Z,1.40
2022-08-11T19:53:43.876Z,1.15
2022-08-11T19:57:07.720Z,1.45
2022-08-11T20:00:37.428Z,1.15
2022-08-11T20:03:59.044Z,0.90
2022-08-11T20:07:21.955Z,1.08
2022-08-11T20:10:46.089Z,1.45
2022-08-11T20:14:13.792Z,1.10
2022-08-11T20:17:36.684Z,0.98
2022-08-11T20:20:59.985Z,1.03
2022-08-11T20:24:22.349Z,0.90
2022-08-11T20:27:44.737Z,0.90
2022-08-11T20:31:08.911Z,0.80
2022-08-11T20:34:32.410Z,0.85
2022-08-11T20:37:55.909Z,0.87
2022-08-11T20:41:19.259Z,0.82
2022-08-11T20:44:42.789Z,0.90
2022-08-11T20:48:05.987Z,0.90
2022-08-11T20:51:30.043Z,0.80
2022-08-11T20:54:59.584Z,0.90
2022-08-11T20:58:27.718Z,0.80
2022-08-11T21:01:56.923Z,0.77
2022-08-11T21:05:19.441Z,1.20
2022-08-11T21:08:53.684Z,0.73
2022-08-11T21:12:17.786Z,0.90
2022-08-11T21:16:01.378Z,0.90
2022-08-11T21:20:01.636Z,0.90
2022-08-11T21:23:23.948Z,0.73
2022-08-11T21:26:49.465Z,0.70
2022-08-11T21:30:12.984Z,0.70
2022-08-11T21:33:35.423Z,0.60
2022-08-11T21:36:59.475Z,0.60
2022-08-11T21:40:23.890Z,0.82
2022-08-11T21:43:48.746Z,0.90
2022-08-11T21:47:11.963Z,0.70
2022-08-11T21:50:33.792Z,0.70
2022-08-11T21:53:56.220Z,0.70
2022-08-11T21:57:18.570Z,0.70
2022-08-11T22:00:40.880Z,0.70
2022-08-11T22:04:03.297Z,0.77
2022-08-11T22:07:27.220Z,0.70
2022-08-11T22:10:49.521Z,0.60
2022-08-11T22:14:11.323Z,0.95
2022-08-11T22:17:33.276Z,0.80
2022-08-11T22:20:56.775Z,0.70
2022-08-11T22:24:29.931Z,0.70
2022-08-11T22:27:52.592Z,0.75
2022-08-11T22:31:16.550Z,0.60
2022-08-11T22:34:51.189Z,0.80
2022-08-11T22:38:16.196Z,0.73
2022-08-11T22:41:42.518Z,0.73
2022-08-11T22:45:04.137Z,0.70
2022-08-11T22:48:28.001Z,0.65
2022-08-11T22:51:50.007Z,0.65
2022-08-11T22:55:12.133Z,0.70
2022-08-11T22:58:34.581Z,0.80
2022-08-11T23:01:57.700Z,0.98
2022-08-11T23:05:20.207Z,0.70
2022-08-11T23:08:42.876Z,0.70
2022-08-11T23:12:06.758Z,0.70
2022-08-11T23:15:29.890Z,0.88
2022-08-11T23:18:51.587Z,0.85
2022-08-11T23:22:14.527Z,0.90
2022-08-11T23:25:36.579Z,0.90
2022-08-11T23:29:04.534Z,0.90
2022-08-11T23:32:27.592Z,0.90
2022-08-11T23:35:56.576Z,0.70
2022-08-11T23:39:19.865Z,1.00
2022-08-11T23:42:41.828Z,1.00
2022-08-11T23:46:08.188Z,0.80
2022-08-11T23:49:30.693Z,0.90
2022-08-11T23:52:53.951Z,0.80
2022-08-11T23:56:15.855Z,0.90
2022-08-11T23:59:39.521Z,1.00
